createdAt,value
2023-04-29T00:01:18.046Z,20.13
2023-04-29T00:03:45.086Z,24.13
2023-04-29T00:06:12.283Z,22.63
2023-04-29T00:08:39.440Z,22.53
2023-04-29T00:11:06.614Z,20.90
2023-04-29T00:13:33.504Z,20.93
2023-04-29T00:16:00.430Z,19.33
2023-04-29T00:18:27.384Z,22.67
2023-04-29T00:20:54.266Z,22.20
2023-04-29T00:23:21.153Z,20.57
2023-04-29T00:25:48.095Z,24.70
2023-04-29T00:28:14.964Z,22.60
2023-04-29T00:30:41.930Z,18.73
2023-04-29T00:33:08.910Z,22.63
2023-04-29T00:35:36.202Z,19.87
2023-04-29T00:38:03.116Z,25.13
2023-04-29T00:40:30.108Z,21.23
2023-04-29T00:42:57.290Z,23.77
2023-04-29T00:45:24.492Z,23.50
2023-04-29T00:47:51.567Z,26.20
2023-04-29T00:50:18.706Z,24.00
2023-04-29T00:52:46.016Z,23.80
2023-04-29T00:55:13.629Z,21.77
2023-04-29T00:57:40.597Z,22.07
2023-04-29T01:00:10.208Z,23.43
2023-04-29T01:02:37.780Z,28.43
2023-04-29T01:05:05.438Z,20.87
2023-04-29T01:07:57.580Z,26.33
2023-04-29T01:10:29.697Z,21.40
2023-04-29T01:13:03.827Z,21.13
2023-04-29T01:16:04.243Z,24.23
2023-04-29T01:18:41.573Z,20.00
2023-04-29T01:21:09.071Z,22.40
2023-04-29T01:23:36.294Z,23.57
2023-04-29T01:26:03.551Z,25.10
2023-04-29T01:29:02.471Z,24.30
2023-04-29T01:31:49.624Z,21.17
2023-04-29T01:34:48.156Z,20.70
2023-04-29T01:37:28.770Z,22.30
2023-04-29T01:40:30.749Z,26.33
2023-04-29T01:43:11.743Z,26.23
2023-04-29T01:45:44.935Z,23.13
2023-04-29T01:48:13.573Z,27.10
2023-04-29T01:50:41.263Z,26.30
2023-04-29T01:53:11.866Z,33.27
2023-04-29T01:55:39.293Z,25.60
2023-04-29T01:58:18.261Z,27.60
2023-04-29T02:01:06.229Z,26.90
2023-04-29T02:03:36.466Z,28.50
2023-04-29T02:06:07.021Z,26.00
2023-04-29T02:08:34.888Z,32.80
2023-04-29T02:11:02.094Z,26.37
2023-04-29T02:13:34.032Z,27.27
2023-04-29T02:16:12.881Z,29.37
2023-04-29T02:18:47.694Z,26.63
2023-04-29T02:21:14.658Z,31.33
2023-04-29T02:23:41.622Z,40.10
2023-04-29T02:26:09.768Z,38.90
2023-04-29T02:28:36.853Z,33.87
2023-04-29T02:31:04.625Z,31.00
2023-04-29T02:33:32.976Z,28.00
2023-04-29T02:35:59.965Z,30.83
2023-04-29T02:38:26.906Z,28.20
2023-04-29T02:40:53.830Z,29.90
2023-04-29T02:43:21.943Z,33.63
2023-04-29T02:45:48.957Z,36.57
2023-04-29T02:48:16.483Z,27.90
2023-04-29T02:50:43.369Z,35.20
2023-04-29T02:53:10.349Z,32.00
2023-04-29T02:55:38.003Z,27.40
2023-04-29T02:58:09.117Z,28.13
2023-04-29T03:00:36.054Z,25.13
2023-04-29T03:03:03.154Z,32.47
2023-04-29T03:05:30.172Z,29.43
2023-04-29T03:07:57.079Z,26.30
2023-04-29T03:10:24.301Z,24.37
2023-04-29T03:12:51.373Z,31.40
2023-04-29T03:15:18.353Z,31.93
2023-04-29T03:17:46.519Z,37.13
2023-04-29T03:20:14.093Z,34.20
2023-04-29T03:22:41.020Z,29.13
2023-04-29T03:25:10.592Z,28.80
2023-04-29T03:27:39.560Z,30.27
2023-04-29T03:30:08.296Z,33.80
2023-04-29T03:32:40.699Z,34.60
2023-04-29T03:35:07.974Z,33.10
2023-04-29T03:37:39.479Z,31.43
2023-04-29T03:40:17.118Z,34.60
2023-04-29T03:42:44.153Z,35.60
2023-04-29T03:45:14.300Z,40.67
2023-04-29T03:47:41.528Z,33.30
2023-04-29T03:50:09.024Z,39.93
2023-04-29T03:52:39.126Z,39.10
2023-04-29T03:55:12.641Z,37.70
2023-04-29T03:57:42.254Z,36.10
2023-04-29T04:00:10.782Z,40.77
2023-04-29T04:02:40.855Z,46.10
2023-04-29T04:05:11.004Z,40.03
2023-04-29T04:07:40.698Z,39.83
2023-04-29T04:10:26.057Z,43.77
2023-04-29T04:12:53.017Z,38.37
2023-04-29T04:15:22.609Z,38.60
2023-04-29T04:17:49.871Z,37.67
2023-04-29T04:20:17.348Z,38.83
2023-04-29T04:22:44.855Z,32.57
2023-04-29T04:25:23.613Z,36.73
2023-04-29T04:27:51.448Z,34.17
2023-04-29T04:30:30.779Z,39.43
2023-04-29T04:32:58.453Z,33.43
2023-04-29T04:35:25.518Z,37.80
2023-04-29T04:37:52.467Z,31.07
2023-04-29T04:40:19.442Z,35.53
2023-04-29T04:43:04.699Z,36.50
2023-04-29T04:45:32.017Z,34.03
2023-04-29T04:47:59.346Z,41.07
2023-04-29T04:50:30.260Z,31.40
2023-04-29T04:52:57.786Z,38.03
2023-04-29T04:55:43.153Z,38.90
2023-04-29T04:58:10.098Z,29.93
2023-04-29T05:00:38.973Z,32.03
2023-04-29T05:03:05.973Z,35.50
2023-04-29T05:05:33.952Z,32.03
2023-04-29T05:08:01.404Z,31.57
2023-04-29T05:10:38.419Z,28.57
2023-04-29T05:13:06.753Z,33.47
2023-04-29T05:15:35.761Z,29.50
2023-04-29T05:18:03.902Z,30.20
2023-04-29T05:20:31.558Z,35.03
2023-04-29T05:23:01.147Z,33.00
2023-04-29T05:25:30.573Z,30.73
2023-04-29T05:27:58.046Z,30.07
2023-04-29T05:30:27.653Z,32.23
2023-04-29T05:32:54.680Z,30.80
2023-04-29T05:35:22.443Z,31.97
2023-04-29T05:37:49.543Z,31.00
2023-04-29T05:40:53.134Z,32.77
2023-04-29T05:43:33.068Z,29.97
2023-04-29T05:46:00.585Z,29.17
2023-04-29T05:48:28.384Z,35.57
2023-04-29T05:50:55.377Z,31.00
2023-04-29T05:53:22.743Z,36.03
2023-04-29T05:55:51.466Z,31.90
2023-04-29T05:58:20.611Z,29.27
2023-04-29T06:00:49.397Z,34.13
2023-04-29T06:03:21.401Z,31.40
2023-04-29T06:05:54.014Z,28.60
2023-04-29T06:08:36.742Z,28.23
2023-04-29T06:11:25.993Z,32.57
2023-04-29T06:13:52.905Z,33.90
2023-04-29T06:16:20.125Z,32.03
2023-04-29T06:18:47.046Z,31.63
2023-04-29T06:21:15.840Z,39.60
2023-04-29T06:23:43.431Z,35.50
2023-04-29T06:26:16.203Z,32.57
2023-04-29T06:28:43.100Z,35.77
2023-04-29T06:31:10.194Z,37.73
2023-04-29T06:33:37.422Z,34.57
2023-04-29T06:36:05.735Z,38.67
2023-04-29T06:38:49.630Z,46.07
2023-04-29T06:41:35.058Z,44.40
2023-04-29T06:44:25.224Z,40.17
2023-04-29T06:47:00.403Z,37.67
2023-04-29T06:49:47.704Z,32.70
2023-04-29T06:52:14.969Z,35.67
2023-04-29T06:54:43.540Z,31.77
2023-04-29T06:57:11.602Z,36.27
2023-04-29T06:59:38.571Z,32.30
2023-04-29T07:02:05.476Z,34.13
2023-04-29T07:04:32.418Z,30.23
2023-04-29T07:06:59.606Z,32.43
2023-04-29T07:09:27.750Z,34.90
2023-04-29T07:11:55.342Z,40.87
2023-04-29T07:14:25.441Z,31.63
2023-04-29T07:16:55.925Z,36.60
2023-04-29T07:19:23.264Z,34.43
2023-04-29T07:21:50.200Z,34.00
2023-04-29T07:24:17.217Z,31.67
2023-04-29T07:26:47.034Z,29.20
2023-04-29T07:29:16.275Z,36.83
2023-04-29T07:31:43.416Z,30.30
2023-04-29T07:34:10.636Z,34.73
2023-04-29T07:36:37.840Z,30.57
2023-04-29T07:39:05.021Z,32.97
2023-04-29T07:41:32.538Z,34.93
2023-04-29T07:43:59.446Z,29.00
2023-04-29T07:46:26.434Z,28.73
2023-04-29T07:48:53.355Z,29.60
2023-04-29T07:51:20.278Z,31.90
2023-04-29T07:53:47.173Z,32.83
2023-04-29T07:56:14.433Z,29.17
2023-04-29T07:58:41.344Z,31.20
2023-04-29T08:01:12.267Z,31.40
2023-04-29T08:03:41.792Z,29.47
2023-04-29T08:06:10.417Z,31.73
2023-04-29T08:08:37.532Z,34.00
2023-04-29T08:11:04.720Z,31.93
2023-04-29T08:13:31.604Z,32.80
2023-04-29T08:15:58.566Z,31.17
2023-04-29T08:18:25.646Z,29.00
2023-04-29T08:20:52.548Z,34.07
2023-04-29T08:23:19.453Z,26.27
2023-04-29T08:25:46.517Z,33.40
2023-04-29T08:28:13.403Z,34.90
2023-04-29T08:30:43.374Z,38.20
2023-04-29T08:33:10.273Z,32.43
2023-04-29T08:35:37.654Z,44.80
2023-04-29T08:38:09.287Z,35.30
2023-04-29T08:40:49.110Z,36.03
2023-04-29T08:43:16.737Z,29.50
2023-04-29T08:45:44.402Z,36.97
2023-04-29T08:48:11.893Z,33.67
2023-04-29T08:50:41.408Z,29.27
2023-04-29T08:53:14.085Z,26.23
2023-04-29T08:55:46.047Z,29.87
2023-04-29T08:58:15.109Z,34.30
2023-04-29T09:00:45.390Z,29.23
2023-04-29T09:03:30.408Z,30.57
2023-04-29T09:06:01.026Z,36.87
2023-04-29T09:08:28.112Z,27.60
2023-04-29T09:10:55.128Z,28.93
2023-04-29T09:13:30.251Z,28.43
2023-04-29T09:15:57.516Z,31.40
2023-04-29T09:18:51.240Z,31.73
2023-04-29T09:21:27.201Z,29.63
2023-04-29T09:23:57.152Z,28.60
2023-04-29T09:26:25.096Z,25.07
2023-04-29T09:29:16.510Z,33.60
2023-04-29T09:31:43.570Z,28.07
2023-04-29T09:34:11.907Z,33.50
2023-04-29T09:36:46.532Z,31.43
2023-04-29T09:39:22.190Z,29.83
2023-04-29T09:41:55.231Z,32.13
2023-04-29T09:44:29.523Z,34.87
2023-04-29T09:47:06.399Z,31.50
2023-04-29T09:49:37.371Z,30.37
2023-04-29T09:52:16.647Z,31.50
2023-04-29T09:54:44.509Z,40.00
2023-04-29T09:57:15.659Z,30.00
2023-04-29T09:59:43.547Z,27.43
2023-04-29T10:02:18.679Z,28.57
2023-04-29T10:04:48.382Z,27.27
2023-04-29T10:07:17.435Z,24.37
2023-04-29T10:09:48.615Z,27.53
2023-04-29T10:12:21.189Z,36.43
2023-04-29T10:14:58.214Z,34.00
2023-04-29T10:17:57.093Z,32.67
2023-04-29T10:20:25.683Z,32.03
2023-04-29T10:22:54.985Z,36.30
2023-04-29T10:25:24.627Z,26.80
2023-04-29T10:27:53.625Z,34.83
2023-04-29T10:30:21.997Z,28.07
2023-04-29T10:32:52.520Z,37.63
2023-04-29T10:35:23.562Z,38.23
2023-04-29T10:37:51.873Z,24.90
2023-04-29T10:40:46.629Z,27.50
2023-04-29T10:43:14.051Z,21.80
2023-04-29T10:45:41.054Z,32.87
2023-04-29T10:48:13.125Z,29.00
2023-04-29T10:50:47.467Z,27.60
2023-04-29T10:53:19.933Z,26.43
2023-04-29T10:55:59.382Z,28.00
2023-04-29T10:58:45.508Z,32.40
2023-04-29T11:01:17.328Z,24.40
2023-04-29T11:03:59.913Z,28.37
2023-04-29T11:06:44.313Z,25.83
2023-04-29T11:09:19.091Z,27.10
2023-04-29T11:12:09.055Z,39.10
2023-04-29T11:14:50.656Z,27.50
2023-04-29T11:17:23.430Z,32.37
2023-04-29T11:19:51.704Z,29.53
2023-04-29T11:22:30.303Z,24.43
2023-04-29T11:25:06.654Z,23.90
2023-04-29T11:27:36.310Z,21.13
2023-04-29T11:30:06.589Z,28.30
2023-04-29T11:32:45.698Z,22.23
2023-04-29T11:35:19.585Z,20.30
2023-04-29T11:37:47.789Z,21.17
2023-04-29T11:40:15.676Z,23.80
2023-04-29T11:42:48.325Z,27.77
2023-04-29T11:45:17.661Z,25.87
2023-04-29T11:47:46.743Z,25.00
2023-04-29T11:50:19.221Z,23.27
2023-04-29T11:52:49.821Z,18.40
2023-04-29T11:55:16.831Z,17.57
2023-04-29T11:57:43.737Z,21.43
2023-04-29T12:00:13.774Z,24.00
2023-04-29T12:02:49.180Z,22.63
2023-04-29T12:05:17.472Z,22.73
2023-04-29T12:07:44.936Z,20.30
2023-04-29T12:10:12.430Z,19.50
2023-04-29T12:12:46.670Z,19.10
2023-04-29T12:15:14.492Z,23.93
2023-04-29T12:17:42.648Z,22.63
2023-04-29T12:20:12.050Z,22.40
2023-04-29T12:22:39.517Z,17.33
2023-04-29T12:25:08.028Z,19.40
2023-04-29T12:27:36.864Z,19.50
2023-04-29T12:30:09.761Z,15.93
2023-04-29T12:32:37.358Z,17.57
2023-04-29T12:35:04.505Z,18.00
2023-04-29T12:37:32.831Z,26.03
2023-04-29T12:39:59.793Z,15.17
2023-04-29T12:42:34.135Z,16.67
2023-04-29T12:45:01.170Z,20.10
2023-04-29T12:47:37.218Z,19.10
2023-04-29T12:50:07.120Z,14.40
2023-04-29T12:52:36.384Z,16.90
2023-04-29T12:55:04.645Z,19.30
2023-04-29T12:57:31.605Z,24.07
2023-04-29T12:59:58.512Z,16.80
2023-04-29T13:02:26.351Z,17.17
2023-04-29T13:04:53.584Z,15.17
2023-04-29T13:07:21.021Z,13.97
2023-04-29T13:09:47.946Z,12.30
2023-04-29T13:12:14.868Z,19.63
2023-04-29T13:14:41.772Z,13.17
2023-04-29T13:17:08.800Z,16.10
2023-04-29T13:19:50.639Z,11.70
2023-04-29T13:22:18.688Z,12.90
2023-04-29T13:24:45.948Z,24.67
2023-04-29T13:27:12.856Z,21.20
2023-04-29T13:29:40.078Z,20.50
2023-04-29T13:32:08.233Z,25.10
2023-04-29T13:34:35.294Z,14.03
2023-04-29T13:37:02.240Z,12.10
2023-04-29T13:39:29.118Z,12.63
2023-04-29T13:41:59.053Z,13.50
2023-04-29T13:44:34.174Z,12.73
2023-04-29T13:47:06.613Z,13.70
2023-04-29T13:52:53.773Z,13.70
2023-04-29T13:55:14.713Z,14.73
2023-04-29T14:00:25.056Z,10.90
2023-04-29T14:05:26.422Z,15.50
2023-04-29T14:07:53.529Z,13.03
2023-04-29T14:10:20.606Z,10.53
2023-04-29T14:12:48.680Z,11.50
2023-04-29T14:15:16.120Z,12.70
2023-04-29T14:17:43.033Z,11.60
2023-04-29T14:20:10.255Z,12.00
2023-04-29T14:22:37.118Z,19.73
2023-04-29T14:25:04.335Z,11.00
2023-04-29T14:27:31.380Z,12.43
2023-04-29T14:29:58.507Z,9.53
2023-04-29T14:32:25.523Z,13.40
2023-04-29T14:34:52.698Z,10.00
2023-04-29T14:37:19.655Z,13.97
2023-04-29T14:39:46.537Z,12.30
2023-04-29T14:42:14.971Z,12.10
2023-04-29T14:44:41.835Z,10.43
2023-04-29T14:47:09.125Z,11.97
2023-04-29T14:49:36.245Z,11.40
2023-04-29T14:52:03.701Z,9.13
2023-04-29T14:54:31.161Z,16.63
2023-04-29T14:56:58.044Z,18.67
2023-04-29T14:59:25.072Z,14.50
2023-04-29T15:01:51.961Z,10.80
2023-04-29T15:04:18.879Z,11.90
2023-04-29T15:06:45.923Z,10.50
2023-04-29T15:09:13.267Z,11.43
2023-04-29T15:11:40.155Z,13.20
2023-04-29T15:14:07.075Z,7.60
2023-04-29T15:16:35.093Z,10.50
2023-04-29T15:19:02.051Z,14.37
2023-04-29T15:21:28.906Z,10.90
2023-04-29T15:23:55.784Z,12.53
2023-04-29T15:26:22.683Z,12.00
2023-04-29T15:28:49.569Z,16.07
2023-04-29T15:31:16.704Z,15.60
2023-04-29T15:33:43.602Z,9.60
2023-04-29T15:36:10.733Z,11.27
2023-04-29T15:38:37.640Z,11.53
2023-04-29T15:41:04.547Z,18.53
2023-04-29T15:43:32.638Z,12.50
2023-04-29T15:46:00.070Z,13.37
2023-04-29T15:48:27.275Z,16.83
2023-04-29T15:50:54.202Z,15.10
2023-04-29T15:53:21.210Z,18.73
2023-04-29T15:55:48.117Z,13.10
2023-04-29T15:58:15.004Z,14.50
2023-04-29T16:00:41.955Z,12.93
2023-04-29T16:03:08.963Z,14.80
2023-04-29T16:05:36.995Z,10.40
2023-04-29T16:08:04.102Z,10.50
2023-04-29T16:10:31.042Z,11.47
2023-04-29T16:12:57.959Z,12.30
2023-04-29T16:15:24.862Z,17.87
2023-04-29T16:17:52.314Z,13.60
2023-04-29T16:20:20.625Z,12.23
2023-04-29T16:22:47.526Z,13.43
2023-04-29T16:25:14.453Z,13.00
2023-04-29T16:27:41.404Z,15.67
2023-04-29T16:30:09.030Z,12.33
2023-04-29T16:32:35.938Z,9.50
2023-04-29T16:35:03.129Z,14.77
2023-04-29T16:37:30.033Z,11.67
2023-04-29T16:39:56.925Z,20.23
2023-04-29T16:42:23.811Z,11.70
2023-04-29T16:44:50.682Z,17.00
2023-04-29T16:47:20.239Z,12.10
2023-04-29T16:49:47.316Z,11.27
2023-04-29T16:52:14.494Z,9.50
2023-04-29T16:54:41.588Z,12.60
2023-04-29T16:57:08.608Z,16.30
2023-04-29T16:59:35.710Z,10.73
2023-04-29T17:02:03.034Z,16.07
2023-04-29T17:04:31.467Z,12.57
2023-04-29T17:07:01.272Z,18.60
2023-04-29T17:09:28.332Z,13.77
2023-04-29T17:11:55.267Z,15.30
2023-04-29T17:14:22.904Z,11.53
2023-04-29T17:16:50.035Z,13.43
2023-04-29T17:19:17.901Z,20.40
2023-04-29T17:21:44.752Z,18.03
2023-04-29T17:24:11.878Z,13.50
2023-04-29T17:26:38.737Z,20.30
2023-04-29T17:29:05.605Z,19.07
2023-04-29T17:31:44.938Z,19.17
2023-04-29T17:34:23.498Z,14.70
2023-04-29T17:36:51.409Z,13.30
2023-04-29T17:39:18.516Z,22.07
2023-04-29T17:41:46.511Z,16.70
2023-04-29T17:44:13.382Z,14.60
2023-04-29T17:46:40.984Z,12.00
2023-04-29T17:49:07.907Z,11.40
2023-04-29T17:51:34.922Z,12.27
2023-04-29T17:54:05.436Z,16.00
2023-04-29T17:56:34.828Z,12.70
2023-04-29T17:59:02.994Z,14.20
2023-04-29T18:01:29.936Z,12.97
2023-04-29T18:03:56.924Z,13.53
2023-04-29T18:06:24.042Z,17.33
2023-04-29T18:08:51.049Z,15.03
2023-04-29T18:11:17.931Z,13.43
2023-04-29T18:13:44.814Z,16.17
2023-04-29T18:16:11.733Z,20.83
2023-04-29T18:18:38.641Z,16.87
2023-04-29T18:21:06.102Z,19.53
2023-04-29T18:23:33.081Z,15.83
2023-04-29T18:26:00.225Z,14.20
2023-04-29T18:28:28.905Z,18.07
2023-04-29T18:30:56.976Z,13.13
2023-04-29T18:33:25.240Z,15.63
2023-04-29T18:35:52.300Z,13.53
2023-04-29T18:38:19.254Z,13.77
2023-04-29T18:40:46.331Z,17.33
2023-04-29T18:43:17.118Z,14.30
2023-04-29T18:45:47.141Z,12.47
2023-04-29T18:48:14.938Z,13.10
2023-04-29T18:50:42.564Z,9.73
2023-04-29T18:53:09.549Z,24.43
2023-04-29T18:55:36.506Z,16.93
2023-04-29T18:58:03.384Z,8.40
2023-04-29T19:00:30.457Z,12.43
2023-04-29T19:02:57.727Z,11.27
2023-04-29T19:05:24.701Z,18.30
2023-04-29T19:07:51.593Z,15.57
2023-04-29T19:10:18.602Z,14.73
2023-04-29T19:12:45.508Z,15.53
2023-04-29T19:15:12.745Z,15.80
2023-04-29T19:17:39.829Z,12.17
2023-04-29T19:20:07.961Z,11.67
2023-04-29T19:22:34.831Z,14.83
2023-04-29T19:25:01.754Z,12.10
2023-04-29T19:27:28.594Z,14.07
2023-04-29T19:29:55.921Z,14.20
2023-04-29T19:32:22.886Z,17.27
2023-04-29T19:34:49.772Z,26.87
2023-04-29T19:37:16.655Z,34.97
2023-04-29T19:39:43.540Z,36.73
2023-04-29T19:42:10.832Z,36.10
2023-04-29T19:44:37.780Z,33.70
2023-04-29T19:47:04.776Z,25.37
2023-04-29T19:49:31.939Z,21.23
2023-04-29T19:51:58.923Z,18.13
2023-04-29T19:54:25.832Z,16.33
2023-04-29T19:56:52.740Z,16.27
2023-04-29T19:59:19.616Z,16.00
2023-04-29T20:01:46.705Z,12.80
2023-04-29T20:04:13.634Z,12.60
2023-04-29T20:06:40.811Z,14.33
2023-04-29T20:09:09.337Z,11.53
2023-04-29T20:11:36.508Z,17.70
2023-04-29T20:14:03.705Z,13.80
2023-04-29T20:16:32.129Z,12.97
2023-04-29T20:18:59.099Z,15.53
2023-04-29T20:21:26.175Z,11.57
2023-04-29T20:23:53.149Z,17.20
2023-04-29T20:26:20.115Z,13.90
2023-04-29T20:28:47.519Z,14.97
2023-04-29T20:31:14.460Z,14.20
2023-04-29T20:33:41.470Z,17.57
2023-04-29T20:36:08.359Z,15.40
2023-04-29T20:38:35.455Z,13.07
2023-04-29T20:41:03.502Z,18.57
2023-04-29T20:43:30.475Z,13.00
2023-04-29T20:45:58.470Z,11.60
2023-04-29T20:48:25.526Z,10.90
2023-04-29T20:50:52.461Z,16.57
2023-04-29T20:53:19.371Z,9.07
2023-04-29T20:55:46.609Z,14.40
2023-04-29T20:58:13.567Z,12.47
2023-04-29T21:00:40.751Z,17.03
2023-04-29T21:03:07.794Z,15.40
2023-04-29T21:05:34.697Z,16.90
2023-04-29T21:08:01.590Z,11.60
2023-04-29T21:10:28.474Z,13.47
2023-04-29T21:12:55.484Z,12.33
2023-04-29T21:15:22.498Z,20.77
2023-04-29T21:17:49.483Z,7.77
2023-04-29T21:20:17.186Z,15.23
2023-04-29T21:22:45.028Z,15.10
2023-04-29T21:25:11.896Z,13.27
2023-04-29T21:27:38.782Z,12.23
2023-04-29T21:30:06.295Z,13.27
2023-04-29T21:32:33.813Z,12.80
2023-04-29T21:35:00.892Z,20.77
2023-04-29T21:37:30.450Z,11.27
2023-04-29T21:39:58.135Z,12.37
2023-04-29T21:42:26.399Z,10.77
2023-04-29T21:44:58.786Z,9.90
2023-04-29T21:47:27.259Z,14.27
2023-04-29T21:49:54.872Z,15.97
2023-04-29T21:52:22.144Z,12.20
2023-04-29T21:54:49.042Z,12.50
2023-04-29T21:57:15.933Z,13.70
2023-04-29T21:59:42.859Z,16.30
2023-04-29T22:02:23.006Z,9.93
2023-04-29T22:04:53.446Z,14.77
2023-04-29T22:07:22.690Z,9.63
2023-04-29T22:09:49.823Z,9.00
2023-04-29T22:12:18.823Z,15.00
2023-04-29T22:14:46.517Z,12.90
2023-04-29T22:17:13.965Z,12.20
2023-04-29T22:19:41.046Z,15.13
2023-04-29T22:22:08.822Z,11.83
2023-04-29T22:24:35.803Z,11.40
2023-04-29T22:27:03.677Z,18.07
2023-04-29T22:29:30.784Z,11.97
2023-04-29T22:31:57.739Z,11.03
2023-04-29T22:34:24.670Z,12.97
2023-04-29T22:36:51.541Z,20.63
2023-04-29T22:39:18.702Z,11.00
2023-04-29T22:41:45.664Z,15.20
2023-04-29T22:44:12.637Z,7.90
2023-04-29T22:46:39.538Z,10.37
2023-04-29T22:49:06.412Z,7.77
2023-04-29T22:51:33.319Z,16.03
2023-04-29T22:54:00.251Z,9.77
2023-04-29T22:56:28.745Z,11.43
2023-04-29T22:58:55.964Z,21.13
2023-04-29T23:01:22.912Z,13.67
2023-04-29T23:03:49.864Z,10.93
2023-04-29T23:06:16.961Z,13.80
2023-04-29T23:08:46.630Z,11.43
2023-04-29T23:11:13.486Z,23.93
2023-04-29T23:13:40.779Z,17.70
2023-04-29T23:16:10.566Z,14.97
2023-04-29T23:18:37.918Z,9.17
2023-04-29T23:21:05.018Z,13.90
2023-04-29T23:23:31.925Z,15.80
2023-04-29T23:25:58.832Z,11.97
2023-04-29T23:28:25.912Z,14.03
2023-04-29T23:30:52.873Z,18.30
2023-04-29T23:33:19.802Z,11.53
2023-04-29T23:35:53.738Z,21.30
2023-04-29T23:38:20.711Z,10.47
2023-04-29T23:40:47.622Z,12.27
2023-04-29T23:43:19.343Z,9.63
2023-04-29T23:45:47.240Z,14.63
2023-04-29T23:48:16.010Z,15.70
2023-04-29T23:50:42.969Z,18.33
2023-04-29T23:53:09.929Z,12.90
2023-04-29T23:55:36.820Z,14.50
2023-04-29T23:58:04.059Z,14.03
